Aviation Digital Data Service (ADDS)

Output produced by METARs form (2123 UTC 31 January 2023)
found at http://www.aviationweather.gov/metar/data/
 
VTSB 311500Z /////KT 7000 SCT020 23/22 Q1011 NOSIG
VTSB 311400Z /////KT 7000 SCT020 23/22 Q1011 NOSIG
VTSB 311300Z /////KT 7000 SCT020 BKN100 23/22 Q1011 NOSIG
VTSB 311200Z /////KT 5000 BR FEW005 SCT020 BKN100 23/22 Q1010 NOSIG
VTSB 311100Z /////KT 4000 BR FEW010 SCT020 BKN100 23/23 Q1009 BECMG TL1200 6000 NSW
VTSB 311000Z /////KT 3000 -RA BR SCT020 BKN100 23/23 Q1009 NOSIG
VTSB 310900Z /////KT 3000 -RA BR SCT020 BKN100 24/22 Q1009 NOSIG
VTSB 310800Z /////KT 6000 SCT020 BKN100 26/21 Q1009 NOSIG
VTSB 310700Z /////KT 6000 SCT020 BKN100 25/22 Q1010 NOSIG
VTSB 310600Z /////KT 7000 SCT020 BKN100 26/22 Q1011 NOSIG
VTSB 310500Z /////KT 6000 SCT020 BKN100 27/22 Q1012 NOSIG
VTSB 310400Z /////KT 6000 SCT020 BKN100 27/22 Q1012 NOSIG
VTSB 310300Z /////KT 6000 SCT020 26/22 Q1012 NOSIG
VTSB 310200Z /////KT 6000 SCT020 25/22 Q1012 NOSIG
VTSB 310100Z /////KT 7000 FEW020 24/21 Q1011 NOSIG
VTSB 310000Z /////KT 6000 FEW020 BKN100 22/21 Q1011 NOSIG
VTSB 302300Z /////KT 6000 FEW020 SCT100 22/21 Q1010 NOSIG
VTSB 302200Z /////KT 6000 SCT020 22/21 Q1010 NOSIG
TAF VTSB 311700Z 3118/0118 34004KT 7000 FEW020 
     BECMG 0102/0104 05015KT 
     BECMG 0114/0116 34004KT